sensor_id;sensor_type;location;lat;lon;timestamp;pressure;altitude;pressure_sealevel;temperature;humidity
25510;BME280;13413;52.336;21.200;2022-08-11T00:02:47;101386.46;;;19.22;56.25
25510;BME280;13413;52.336;21.200;2022-08-11T00:07:16;101381.75;;;19.18;56.42
25510;BME280;13413;52.336;21.200;2022-08-11T00:11:49;101382.58;;;19.21;56.39
25510;BME280;13413;52.336;21.200;2022-08-11T00:16:19;101388.91;;;19.13;56.40
25510;BME280;13413;52.336;21.200;2022-08-11T00:20:48;101387.54;;;19.09;56.62
25510;BME280;13413;52.336;21.200;2022-08-11T00:25:19;101391.84;;;19.10;56.57
25510;BME280;13413;52.336;21.200;2022-08-11T00:29:54;101390.15;;;19.07;56.45
25510;BME280;13413;52.336;21.200;2022-08-11T00:34:24;101390.77;;;19.07;56.50
25510;BME280;13413;52.336;21.200;2022-08-11T00:38:54;101387.79;;;19.07;56.49
25510;BME280;13413;52.336;21.200;2022-08-11T00:48:30;101384.10;;;19.01;56.42
25510;BME280;13413;52.336;21.200;2022-08-11T00:53:07;101381.49;;;18.95;56.54
25510;BME280;13413;52.336;21.200;2022-08-11T00:57:58;101389.42;;;18.92;56.56
25510;BME280;13413;52.336;21.200;2022-08-11T01:02:48;101385.77;;;18.83;56.72
25510;BME280;13413;52.336;21.200;2022-08-11T01:07:38;101387.73;;;18.74;56.69
25510;BME280;13413;52.336;21.200;2022-08-11T01:12:42;101389.38;;;18.64;56.78
25510;BME280;13413;52.336;21.200;2022-08-11T01:17:46;101384.64;;;18.52;56.94
25510;BME280;13413;52.336;21.200;2022-08-11T01:22:55;101386.89;;;18.46;57.16
25510;BME280;13413;52.336;21.200;2022-08-11T01:32:48;101383.80;;;18.51;57.32
25510;BME280;13413;52.336;21.200;2022-08-11T01:37:58;101383.65;;;18.42;57.30
25510;BME280;13413;52.336;21.200;2022-08-11T01:42:59;101386.66;;;18.37;57.42
25510;BME280;13413;52.336;21.200;2022-08-11T01:47:39;101388.77;;;18.42;57.65
25510;BME280;13413;52.336;21.200;2022-08-11T01:52:16;101389.30;;;18.39;57.48
25510;BME280;13413;52.336;21.200;2022-08-11T01:57:03;101386.46;;;18.31;57.49
25510;BME280;13413;52.336;21.200;2022-08-11T02:01:51;101388.56;;;18.20;57.78
25510;BME280;13413;52.336;21.200;2022-08-11T02:06:41;101386.70;;;18.28;57.76
25510;BME280;13413;52.336;21.200;2022-08-11T02:11:21;101388.35;;;18.18;57.64
25510;BME280;13413;52.336;21.200;2022-08-11T02:15:53;101388.23;;;18.08;57.93
25510;BME280;13413;52.336;21.200;2022-08-11T02:20:34;101388.66;;;18.07;57.92
25510;BME280;13413;52.336;21.200;2022-08-11T02:25:08;101388.79;;;18.06;57.92
25510;BME280;13413;52.336;21.200;2022-08-11T02:29:51;101394.66;;;18.10;58.07
25510;BME280;13413;52.336;21.200;2022-08-11T02:39:02;101404.98;;;18.11;58.17
25510;BME280;13413;52.336;21.200;2022-08-11T02:42:37;101407.08;;;18.10;58.31
25510;BME280;13413;52.336;21.200;2022-08-11T02:47:10;101405.81;;;18.07;58.29
25510;BME280;13413;52.336;21.200;2022-08-11T02:51:52;101404.37;;;18.01;58.13
25510;BME280;13413;52.336;21.200;2022-08-11T02:56:31;101404.96;;;17.95;58.33
25510;BME280;13413;52.336;21.200;2022-08-11T03:01:11;101409.20;;;17.92;58.55
25510;BME280;13413;52.336;21.200;2022-08-11T03:05:51;101400.95;;;18.00;58.53
25510;BME280;13413;52.336;21.200;2022-08-11T03:10:24;101405.42;;;17.89;58.44
25510;BME280;13413;52.336;21.200;2022-08-11T03:15:01;101404.75;;;17.73;58.62
25510;BME280;13413;52.336;21.200;2022-08-11T03:24:07;101405.98;;;17.65;58.48
25510;BME280;13413;52.336;21.200;2022-08-11T03:28:56;101408.64;;;17.55;58.77
25510;BME280;13413;52.336;21.200;2022-08-11T03:33:31;101407.61;;;17.55;58.83
25510;BME280;13413;52.336;21.200;2022-08-11T03:38:03;101407.84;;;17.52;58.86
25510;BME280;13413;52.336;21.200;2022-08-11T03:42:45;101415.97;;;17.49;59.03
25510;BME280;13413;52.336;21.200;2022-08-11T03:47:27;101412.53;;;17.56;59.17
25510;BME280;13413;52.336;21.200;2022-08-11T03:52:10;101411.18;;;17.59;59.30
25510;BME280;13413;52.336;21.200;2022-08-11T04:02:35;101413.82;;;17.83;59.47
25510;BME280;13413;52.336;21.200;2022-08-11T04:12:32;101414.23;;;18.06;59.50
25510;BME280;13413;52.336;21.200;2022-08-11T04:17:36;101415.20;;;18.14;59.53
25510;BME280;13413;52.336;21.200;2022-08-11T04:27:30;101427.23;;;18.34;59.47
25510;BME280;13413;52.336;21.200;2022-08-11T04:31:09;101426.02;;;18.48;59.47
25510;BME280;13413;52.336;21.200;2022-08-11T04:41:05;101430.31;;;18.85;59.28
25510;BME280;13413;52.336;21.200;2022-08-11T04:51:00;101433.31;;;19.14;59.12
25510;BME280;13413;52.336;21.200;2022-08-11T04:55:49;101433.41;;;19.22;59.01
25510;BME280;13413;52.336;21.200;2022-08-11T05:00:20;101429.11;;;19.32;59.04
25510;BME280;13413;52.336;21.200;2022-08-11T05:05:03;101430.92;;;19.39;58.82
25510;BME280;13413;52.336;21.200;2022-08-11T05:09:47;101431.00;;;19.47;58.73
25510;BME280;13413;52.336;21.200;2022-08-11T05:14:40;101424.70;;;19.59;58.73
25510;BME280;13413;52.336;21.200;2022-08-11T05:19:16;101419.51;;;19.75;58.67
25510;BME280;13413;52.336;21.200;2022-08-11T05:23:48;101418.82;;;19.84;58.46
25510;BME280;13413;52.336;21.200;2022-08-11T05:28:31;101419.85;;;19.94;58.39
25510;BME280;13413;52.336;21.200;2022-08-11T05:33:05;101424.87;;;20.04;58.37
25510;BME280;13413;52.336;21.200;2022-08-11T05:37:41;101423.48;;;20.21;58.34
25510;BME280;13413;52.336;21.200;2022-08-11T05:42:11;101422.58;;;20.40;58.12
25510;BME280;13413;52.336;21.200;2022-08-11T05:46:41;101420.77;;;20.56;58.04
25510;BME280;13413;52.336;21.200;2022-08-11T05:51:10;101418.63;;;20.69;57.60
25510;BME280;13413;52.336;21.200;2022-08-11T05:55:42;101418.91;;;20.83;57.61
25510;BME280;13413;52.336;21.200;2022-08-11T06:00:12;101414.86;;;21.00;57.63
25510;BME280;13413;52.336;21.200;2022-08-11T06:04:41;101411.80;;;21.20;57.36
25510;BME280;13413;52.336;21.200;2022-08-11T06:09:10;101410.48;;;21.40;57.36
25510;BME280;13413;52.336;21.200;2022-08-11T06:13:43;101417.36;;;21.55;57.09
25510;BME280;13413;52.336;21.200;2022-08-11T06:18:12;101425.54;;;21.68;57.02
25510;BME280;13413;52.336;21.200;2022-08-11T06:22:44;101431.69;;;21.82;56.97
25510;BME280;13413;52.336;21.200;2022-08-11T06:27:19;101439.79;;;21.98;56.51
25510;BME280;13413;52.336;21.200;2022-08-11T06:31:57;101442.84;;;21.94;56.08
25510;BME280;13413;52.336;21.200;2022-08-11T06:36:33;101430.83;;;22.02;56.80
25510;BME280;13413;52.336;21.200;2022-08-11T06:41:06;101419.55;;;22.25;56.13
25510;BME280;13413;52.336;21.200;2022-08-11T06:45:50;101413.52;;;22.33;55.93
25510;BME280;13413;52.336;21.200;2022-08-11T06:50:21;101410.29;;;22.54;56.23
25510;BME280;13413;52.336;21.200;2022-08-11T06:54:52;101417.29;;;22.76;55.98
25510;BME280;13413;52.336;21.200;2022-08-11T06:59:22;101410.95;;;22.88;55.71
25510;BME280;13413;52.336;21.200;2022-08-11T07:03:58;101405.04;;;22.99;55.21
25510;BME280;13413;52.336;21.200;2022-08-11T07:08:59;101410.67;;;23.15;55.32
25510;BME280;13413;52.336;21.200;2022-08-11T07:13:34;101413.88;;;23.30;55.14
25510;BME280;13413;52.336;21.200;2022-08-11T07:18:07;101410.48;;;23.49;54.75
25510;BME280;13413;52.336;21.200;2022-08-11T07:22:37;101416.22;;;23.59;54.35
25510;BME280;13413;52.336;21.200;2022-08-11T07:27:10;101410.48;;;23.71;53.86
25510;BME280;13413;52.336;21.200;2022-08-11T07:31:42;101407.98;;;23.78;53.37
25510;BME280;13413;52.336;21.200;2022-08-11T07:36:14;101406.26;;;24.00;53.62
25510;BME280;13413;52.336;21.200;2022-08-11T07:40:43;101413.65;;;24.23;53.15
25510;BME280;13413;52.336;21.200;2022-08-11T07:45:12;101406.23;;;24.38;52.64
25510;BME280;13413;52.336;21.200;2022-08-11T07:49:41;101402.81;;;24.53;52.33
25510;BME280;13413;52.336;21.200;2022-08-11T07:54:11;101404.61;;;24.59;51.19
25510;BME280;13413;52.336;21.200;2022-08-11T07:58:40;101400.95;;;24.66;51.22
25510;BME280;13413;52.336;21.200;2022-08-11T08:03:09;101396.52;;;24.82;50.77
25510;BME280;13413;52.336;21.200;2022-08-11T08:07:39;101396.89;;;24.98;50.36
25510;BME280;13413;52.336;21.200;2022-08-11T08:12:09;101395.50;;;25.12;50.39
25510;BME280;13413;52.336;21.200;2022-08-11T08:16:39;101401.60;;;25.33;49.70
25510;BME280;13413;52.336;21.200;2022-08-11T08:21:08;101391.10;;;25.46;48.92
25510;BME280;13413;52.336;21.200;2022-08-11T08:25:38;101388.38;;;25.54;48.50
25510;BME280;13413;52.336;21.200;2022-08-11T08:30:09;101389.08;;;25.68;48.02
25510;BME280;13413;52.336;21.200;2022-08-11T08:34:37;101386.38;;;25.83;48.14
25510;BME280;13413;52.336;21.200;2022-08-11T08:39:07;101383.36;;;25.97;47.42
25510;BME280;13413;52.336;21.200;2022-08-11T08:43:35;101381.92;;;26.11;47.17
25510;BME280;13413;52.336;21.200;2022-08-11T08:48:07;101385.99;;;26.25;46.32
25510;BME280;13413;52.336;21.200;2022-08-11T08:52:41;101386.77;;;26.36;46.10
25510;BME280;13413;52.336;21.200;2022-08-11T08:57:11;101389.77;;;26.53;45.46
25510;BME280;13413;52.336;21.200;2022-08-11T09:01:45;101388.14;;;26.63;45.14
25510;BME280;13413;52.336;21.200;2022-08-11T09:06:16;101386.36;;;26.84;44.86
25510;BME280;13413;52.336;21.200;2022-08-11T09:10:46;101385.96;;;27.00;44.08
25510;BME280;13413;52.336;21.200;2022-08-11T09:15:16;101386.70;;;27.14;43.22
25510;BME280;13413;52.336;21.200;2022-08-11T09:19:45;101388.36;;;27.41;43.08
25510;BME280;13413;52.336;21.200;2022-08-11T09:24:14;101379.67;;;27.67;42.63
25510;BME280;13413;52.336;21.200;2022-08-11T09:28:44;101380.31;;;27.96;42.23
25510;BME280;13413;52.336;21.200;2022-08-11T09:33:16;101377.34;;;28.21;41.58
25510;BME280;13413;52.336;21.200;2022-08-11T09:37:45;101374.83;;;27.90;41.48
25510;BME280;13413;52.336;21.200;2022-08-11T09:42:14;101369.75;;;28.10;41.60
25510;BME280;13413;52.336;21.200;2022-08-11T09:46:42;101366.39;;;28.52;40.76
25510;BME280;13413;52.336;21.200;2022-08-11T09:51:12;101359.84;;;28.47;40.42
25510;BME280;13413;52.336;21.200;2022-08-11T09:55:42;101354.53;;;28.70;40.10
25510;BME280;13413;52.336;21.200;2022-08-11T10:00:12;101364.52;;;28.98;39.45
25510;BME280;13413;52.336;21.200;2022-08-11T10:04:42;101363.09;;;29.14;39.34
25510;BME280;13413;52.336;21.200;2022-08-11T10:09:10;101353.81;;;29.54;39.29
25510;BME280;13413;52.336;21.200;2022-08-11T10:13:43;101356.92;;;29.80;38.19
25510;BME280;13413;52.336;21.200;2022-08-11T10:18:15;101347.54;;;29.49;38.48
25510;BME280;13413;52.336;21.200;2022-08-11T10:22:46;101340.19;;;29.76;38.28
25510;BME280;13413;52.336;21.200;2022-08-11T10:27:15;101334.59;;;29.98;38.62
25510;BME280;13413;52.336;21.200;2022-08-11T10:31:46;101329.30;;;30.26;37.87
25510;BME280;13413;52.336;21.200;2022-08-11T10:36:14;101324.35;;;29.69;38.08
25510;BME280;13413;52.336;21.200;2022-08-11T10:40:46;101315.95;;;29.45;38.18
25510;BME280;13413;52.336;21.200;2022-08-11T10:45:16;101305.98;;;29.97;37.99
25510;BME280;13413;52.336;21.200;2022-08-11T10:49:43;101304.27;;;29.83;37.02
25510;BME280;13413;52.336;21.200;2022-08-11T10:54:12;101301.70;;;29.35;36.95
25510;BME280;13413;52.336;21.200;2022-08-11T10:58:42;101300.67;;;29.51;37.27
25510;BME280;13413;52.336;21.200;2022-08-11T11:03:10;101301.18;;;29.62;37.12
25510;BME280;13413;52.336;21.200;2022-08-11T11:07:41;101289.33;;;29.40;37.55
25510;BME280;13413;52.336;21.200;2022-08-11T11:12:18;101282.16;;;29.85;37.59
25510;BME280;13413;52.336;21.200;2022-08-11T11:16:48;101277.86;;;30.38;37.27
25510;BME280;13413;52.336;21.200;2022-08-11T11:21:20;101274.98;;;31.11;37.29
25510;BME280;13413;52.336;21.200;2022-08-11T11:26:09;101264.33;;;31.56;35.83
25510;BME280;13413;52.336;21.200;2022-08-11T11:30:45;101261.33;;;31.72;35.40
25510;BME280;13413;52.336;21.200;2022-08-11T11:35:34;101262.34;;;31.07;34.92
25510;BME280;13413;52.336;21.200;2022-08-11T11:40:07;101263.69;;;30.37;34.70
25510;BME280;13413;52.336;21.200;2022-08-11T11:44:37;101254.65;;;29.94;35.06
25510;BME280;13413;52.336;21.200;2022-08-11T11:49:07;101247.77;;;29.67;35.59
25510;BME280;13413;52.336;21.200;2022-08-11T11:53:36;101248.02;;;29.83;35.80
25510;BME280;13413;52.336;21.200;2022-08-11T11:58:25;101246.42;;;30.39;35.43
25510;BME280;13413;52.336;21.200;2022-08-11T12:02:55;101236.71;;;30.86;34.92
25510;BME280;13413;52.336;21.200;2022-08-11T12:07:24;101233.64;;;30.92;34.69
25510;BME280;13413;52.336;21.200;2022-08-11T12:11:52;101233.42;;;31.10;33.64
25510;BME280;13413;52.336;21.200;2022-08-11T12:16:23;101218.88;;;31.22;33.26
25510;BME280;13413;52.336;21.200;2022-08-11T12:20:52;101205.75;;;31.32;33.00
25510;BME280;13413;52.336;21.200;2022-08-11T12:25:19;101210.27;;;31.27;32.66
25510;BME280;13413;52.336;21.200;2022-08-11T12:29:51;101208.21;;;31.15;32.67
25510;BME280;13413;52.336;21.200;2022-08-11T12:34:21;101209.25;;;31.24;32.83
25510;BME280;13413;52.336;21.200;2022-08-11T12:38:50;101210.93;;;31.11;32.54
25510;BME280;13413;52.336;21.200;2022-08-11T12:43:21;101209.93;;;30.74;32.62
25510;BME280;13413;52.336;21.200;2022-08-11T12:47:51;101213.64;;;30.53;32.90
25510;BME280;13413;52.336;21.200;2022-08-11T12:52:22;101212.51;;;30.34;33.05
25510;BME280;13413;52.336;21.200;2022-08-11T12:56:57;101209.21;;;30.29;33.32
25510;BME280;13413;52.336;21.200;2022-08-11T13:01:26;101204.18;;;30.62;33.71
25510;BME280;13413;52.336;21.200;2022-08-11T13:05:56;101193.57;;;30.61;33.79
25510;BME280;13413;52.336;21.200;2022-08-11T13:10:23;101199.94;;;30.71;33.14
25510;BME280;13413;52.336;21.200;2022-08-11T13:14:52;101207.29;;;30.76;32.45
25510;BME280;13413;52.336;21.200;2022-08-11T13:19:20;101206.97;;;30.63;32.71
25510;BME280;13413;52.336;21.200;2022-08-11T13:23:52;101200.84;;;30.73;32.43
25510;BME280;13413;52.336;21.200;2022-08-11T13:28:23;101196.80;;;30.77;31.97
25510;BME280;13413;52.336;21.200;2022-08-11T13:32:53;101180.60;;;30.70;32.00
25510;BME280;13413;52.336;21.200;2022-08-11T13:37:22;101187.20;;;30.83;31.47
25510;BME280;13413;52.336;21.200;2022-08-11T13:41:55;101176.63;;;30.84;31.30
25510;BME280;13413;52.336;21.200;2022-08-11T13:45:27;101173.91;;;30.76;31.41
25510;BME280;13413;52.336;21.200;2022-08-11T13:49:56;101173.50;;;30.62;31.53
25510;BME280;13413;52.336;21.200;2022-08-11T13:54:27;101172.08;;;30.52;31.80
25510;BME280;13413;52.336;21.200;2022-08-11T13:58:56;101166.80;;;30.31;31.71
25510;BME280;13413;52.336;21.200;2022-08-11T14:03:27;101167.73;;;30.48;32.30
25510;BME280;13413;52.336;21.200;2022-08-11T14:08:00;101174.73;;;30.59;31.76
25510;BME280;13413;52.336;21.200;2022-08-11T14:12:30;101176.05;;;30.61;31.40
25510;BME280;13413;52.336;21.200;2022-08-11T14:17:02;101172.38;;;30.53;31.56
25510;BME280;13413;52.336;21.200;2022-08-11T14:21:37;101175.28;;;30.54;31.84
25510;BME280;13413;52.336;21.200;2022-08-11T14:26:08;101178.64;;;30.17;31.76
25510;BME280;13413;52.336;21.200;2022-08-11T14:30:37;101184.58;;;29.90;31.40
25510;BME280;13413;52.336;21.200;2022-08-11T14:35:06;101197.60;;;29.25;33.80
25510;BME280;13413;52.336;21.200;2022-08-11T14:39:35;101191.54;;;28.86;34.97
25510;BME280;13413;52.336;21.200;2022-08-11T14:44:05;101184.36;;;28.24;36.11
25510;BME280;13413;52.336;21.200;2022-08-11T14:48:35;101175.13;;;27.87;37.14
25510;BME280;13413;52.336;21.200;2022-08-11T14:53:05;101169.19;;;27.95;37.65
25510;BME280;13413;52.336;21.200;2022-08-11T14:57:39;101169.47;;;28.20;37.91
25510;BME280;13413;52.336;21.200;2022-08-11T15:02:08;101160.73;;;28.26;38.12
25510;BME280;13413;52.336;21.200;2022-08-11T15:06:39;101148.08;;;28.19;38.31
25510;BME280;13413;52.336;21.200;2022-08-11T15:11:08;101136.03;;;28.05;38.88
25510;BME280;13413;52.336;21.200;2022-08-11T15:20:11;101149.79;;;28.08;38.76
25510;BME280;13413;52.336;21.200;2022-08-11T15:24:42;101150.14;;;27.89;39.24
25510;BME280;13413;52.336;21.200;2022-08-11T15:29:12;101146.02;;;27.67;38.98
25510;BME280;13413;52.336;21.200;2022-08-11T15:33:43;101150.55;;;27.67;39.72
25510;BME280;13413;52.336;21.200;2022-08-11T15:38:14;101150.54;;;27.59;39.34
25510;BME280;13413;52.336;21.200;2022-08-11T15:42:50;101139.16;;;27.54;38.96
25510;BME280;13413;52.336;21.200;2022-08-11T15:47:47;101145.79;;;27.59;39.10
25510;BME280;13413;52.336;21.200;2022-08-11T15:51:24;101135.40;;;27.74;39.01
25510;BME280;13413;52.336;21.200;2022-08-11T15:55:56;101136.19;;;27.61;38.78
25510;BME280;13413;52.336;21.200;2022-08-11T16:00:27;101138.25;;;27.54;38.75
25510;BME280;13413;52.336;21.200;2022-08-11T16:04:57;101134.19;;;27.71;38.87
25510;BME280;13413;52.336;21.200;2022-08-11T16:09:31;101133.17;;;27.74;38.63
25510;BME280;13413;52.336;21.200;2022-08-11T16:14:01;101134.85;;;27.73;38.90
25510;BME280;13413;52.336;21.200;2022-08-11T16:18:32;101133.80;;;27.66;38.49
25510;BME280;13413;52.336;21.200;2022-08-11T16:23:03;101134.12;;;27.63;38.28
25510;BME280;13413;52.336;21.200;2022-08-11T16:27:37;101128.64;;;27.70;38.40
25510;BME280;13413;52.336;21.200;2022-08-11T16:32:07;101125.36;;;27.79;38.38
25510;BME280;13413;52.336;21.200;2022-08-11T16:36:37;101131.43;;;27.90;38.54
25510;BME280;13413;52.336;21.200;2022-08-11T16:41:09;101136.63;;;27.95;38.47
25510;BME280;13413;52.336;21.200;2022-08-11T16:45:38;101129.08;;;27.86;38.43
25510;BME280;13413;52.336;21.200;2022-08-11T16:50:08;101127.71;;;27.75;38.48
25510;BME280;13413;52.336;21.200;2022-08-11T16:54:37;101129.02;;;27.75;38.23
25510;BME280;13413;52.336;21.200;2022-08-11T16:59:10;101131.63;;;27.72;38.31
25510;BME280;13413;52.336;21.200;2022-08-11T17:03:46;101132.02;;;27.72;38.86
25510;BME280;13413;52.336;21.200;2022-08-11T17:08:18;101126.19;;;27.67;39.30
25510;BME280;13413;52.336;21.200;2022-08-11T17:12:50;101127.59;;;27.65;39.53
25510;BME280;13413;52.336;21.200;2022-08-11T17:17:25;101127.38;;;27.67;39.28
25510;BME280;13413;52.336;21.200;2022-08-11T17:21:55;101127.48;;;27.67;39.63
25510;BME280;13413;52.336;21.200;2022-08-11T17:26:27;101129.65;;;27.62;40.03
25510;BME280;13413;52.336;21.200;2022-08-11T17:30:56;101128.86;;;27.51;39.90
25510;BME280;13413;52.336;21.200;2022-08-11T17:35:27;101125.23;;;27.36;40.32
25510;BME280;13413;52.336;21.200;2022-08-11T17:39:56;101129.19;;;27.26;41.11
25510;BME280;13413;52.336;21.200;2022-08-11T17:44:25;101130.64;;;27.22;40.93
25510;BME280;13413;52.336;21.200;2022-08-11T17:48:54;101157.63;;;27.23;40.67
25510;BME280;13413;52.336;21.200;2022-08-11T17:53:24;101168.91;;;27.03;41.20
25510;BME280;13413;52.336;21.200;2022-08-11T17:57:52;101161.15;;;26.67;42.11
25510;BME280;13413;52.336;21.200;2022-08-11T18:02:22;101165.84;;;26.31;42.95
25510;BME280;13413;52.336;21.200;2022-08-11T18:06:54;101171.55;;;26.03;43.55
25510;BME280;13413;52.336;21.200;2022-08-11T18:11:24;101180.20;;;25.92;43.84
25510;BME280;13413;52.336;21.200;2022-08-11T18:15:53;101188.52;;;25.92;44.00
25510;BME280;13413;52.336;21.200;2022-08-11T18:20:22;101189.67;;;25.88;44.22
25510;BME280;13413;52.336;21.200;2022-08-11T18:24:52;101193.94;;;25.80;44.43
25510;BME280;13413;52.336;21.200;2022-08-11T18:29:21;101195.41;;;25.81;44.71
25510;BME280;13413;52.336;21.200;2022-08-11T18:33:54;101197.23;;;25.88;44.85
25510;BME280;13413;52.336;21.200;2022-08-11T18:38:23;101202.84;;;25.90;45.05
25510;BME280;13413;52.336;21.200;2022-08-11T18:42:56;101204.52;;;25.80;45.20
25510;BME280;13413;52.336;21.200;2022-08-11T18:47:24;101201.23;;;25.71;45.36
25510;BME280;13413;52.336;21.200;2022-08-11T18:51:56;101194.67;;;25.67;45.64
25510;BME280;13413;52.336;21.200;2022-08-11T18:56:25;101189.44;;;25.82;45.83
25510;BME280;13413;52.336;21.200;2022-08-11T19:00:57;101195.48;;;25.93;45.95
25510;BME280;13413;52.336;21.200;2022-08-11T19:05:26;101201.77;;;25.80;45.92
25510;BME280;13413;52.336;21.200;2022-08-11T19:09:58;101210.52;;;25.90;45.95
25510;BME280;13413;52.336;21.200;2022-08-11T19:14:28;101205.80;;;25.71;46.44
25510;BME280;13413;52.336;21.200;2022-08-11T19:18:56;101209.78;;;25.68;46.98
25510;BME280;13413;52.336;21.200;2022-08-11T19:23:28;101206.95;;;25.72;46.88
25510;BME280;13413;52.336;21.200;2022-08-11T19:27:59;101204.00;;;25.70;47.25
25510;BME280;13413;52.336;21.200;2022-08-11T19:32:33;101201.84;;;25.57;47.68
25510;BME280;13413;52.336;21.200;2022-08-11T19:37:02;101196.60;;;25.56;47.75
25510;BME280;13413;52.336;21.200;2022-08-11T19:41:31;101195.45;;;25.48;47.94
25510;BME280;13413;52.336;21.200;2022-08-11T19:46:01;101194.15;;;25.35;48.34
25510;BME280;13413;52.336;21.200;2022-08-11T19:50:30;101194.63;;;25.23;48.54
25510;BME280;13413;52.336;21.200;2022-08-11T19:55:00;101199.58;;;25.22;48.76
25510;BME280;13413;52.336;21.200;2022-08-11T19:59:48;101202.68;;;25.15;49.09
25510;BME280;13413;52.336;21.200;2022-08-11T20:04:15;101201.01;;;25.16;49.29
25510;BME280;13413;52.336;21.200;2022-08-11T20:08:48;101195.00;;;25.05;49.38
25510;BME280;13413;52.336;21.200;2022-08-11T20:13:18;101190.22;;;25.01;49.60
25510;BME280;13413;52.336;21.200;2022-08-11T20:17:49;101185.70;;;24.92;49.81
25510;BME280;13413;52.336;21.200;2022-08-11T20:22:20;101182.38;;;24.87;49.89
25510;BME280;13413;52.336;21.200;2022-08-11T20:26:50;101186.05;;;24.81;50.06
25510;BME280;13413;52.336;21.200;2022-08-11T20:31:20;101191.46;;;24.66;50.22
25510;BME280;13413;52.336;21.200;2022-08-11T20:35:49;101191.95;;;24.56;50.42
25510;BME280;13413;52.336;21.200;2022-08-11T20:40:21;101189.98;;;24.49;50.57
25510;BME280;13413;52.336;21.200;2022-08-11T20:44:50;101195.99;;;24.34;50.84
25510;BME280;13413;52.336;21.200;2022-08-11T20:49:21;101195.51;;;24.34;50.96
25510;BME280;13413;52.336;21.200;2022-08-11T20:53:50;101191.16;;;24.33;50.93
25510;BME280;13413;52.336;21.200;2022-08-11T20:58:19;101187.36;;;24.33;50.94
25510;BME280;13413;52.336;21.200;2022-08-11T21:02:50;101181.27;;;24.33;50.94
25510;BME280;13413;52.336;21.200;2022-08-11T21:07:19;101178.80;;;24.35;50.92
25510;BME280;13413;52.336;21.200;2022-08-11T21:11:48;101169.75;;;24.31;51.03
25510;BME280;13413;52.336;21.200;2022-08-11T21:16:24;101179.55;;;24.27;51.07
25510;BME280;13413;52.336;21.200;2022-08-11T21:20:54;101190.53;;;24.26;51.13
25510;BME280;13413;52.336;21.200;2022-08-11T21:25:23;101194.84;;;24.21;51.18
25510;BME280;13413;52.336;21.200;2022-08-11T21:29:53;101197.63;;;24.22;51.20
25510;BME280;13413;52.336;21.200;2022-08-11T21:34:22;101198.42;;;24.21;51.28
25510;BME280;13413;52.336;21.200;2022-08-11T21:38:52;101191.48;;;24.21;51.40
25510;BME280;13413;52.336;21.200;2022-08-11T21:43:21;101191.41;;;24.20;51.53
25510;BME280;13413;52.336;21.200;2022-08-11T21:47:50;101199.01;;;24.23;51.51
25510;BME280;13413;52.336;21.200;2022-08-11T21:52:19;101193.89;;;24.22;51.68
25510;BME280;13413;52.336;21.200;2022-08-11T22:01:17;101199.59;;;24.19;51.59
25510;BME280;13413;52.336;21.200;2022-08-11T22:05:46;101198.90;;;24.13;51.78
25510;BME280;13413;52.336;21.200;2022-08-11T22:10:14;101199.94;;;24.13;51.83
25510;BME280;13413;52.336;21.200;2022-08-11T22:14:44;101201.30;;;24.13;51.85
25510;BME280;13413;52.336;21.200;2022-08-11T22:19:12;101199.02;;;24.10;51.69
25510;BME280;13413;52.336;21.200;2022-08-11T22:23:43;101194.81;;;24.09;51.90
25510;BME280;13413;52.336;21.200;2022-08-11T22:28:11;101189.97;;;24.07;51.72
25510;BME280;13413;52.336;21.200;2022-08-11T22:32:40;101188.17;;;24.05;51.63
25510;BME280;13413;52.336;21.200;2022-08-11T22:37:10;101184.89;;;24.03;51.56
25510;BME280;13413;52.336;21.200;2022-08-11T22:41:40;101185.62;;;24.00;51.14
25510;BME280;13413;52.336;21.200;2022-08-11T22:46:25;101190.11;;;23.99;50.91
25510;BME280;13413;52.336;21.200;2022-08-11T22:50:54;101189.98;;;23.99;50.66
25510;BME280;13413;52.336;21.200;2022-08-11T22:55:24;101189.33;;;23.99;50.47
25510;BME280;13413;52.336;21.200;2022-08-11T22:59:54;101182.68;;;23.97;50.36
25510;BME280;13413;52.336;21.200;2022-08-11T23:04:23;101176.30;;;23.93;50.24
25510;BME280;13413;52.336;21.200;2022-08-11T23:08:51;101180.14;;;23.92;50.19
25510;BME280;13413;52.336;21.200;2022-08-11T23:13:21;101180.05;;;23.90;50.10
25510;BME280;13413;52.336;21.200;2022-08-11T23:17:49;101174.63;;;23.90;49.98
25510;BME280;13413;52.336;21.200;2022-08-11T23:22:18;101168.32;;;23.88;49.80
25510;BME280;13413;52.336;21.200;2022-08-11T23:26:47;101167.37;;;23.87;49.65
25510;BME280;13413;52.336;21.200;2022-08-11T23:31:16;101164.98;;;23.85;49.63
25510;BME280;13413;52.336;21.200;2022-08-11T23:35:50;101162.76;;;23.83;49.63
25510;BME280;13413;52.336;21.200;2022-08-11T23:40:19;101162.39;;;23.82;49.57
25510;BME280;13413;52.336;21.200;2022-08-11T23:44:48;101158.48;;;23.78;49.38
25510;BME280;13413;52.336;21.200;2022-08-11T23:49:17;101156.59;;;23.75;49.39
25510;BME280;13413;52.336;21.200;2022-08-11T23:53:46;101154.17;;;23.70;49.44
25510;BME280;13413;52.336;21.200;2022-08-11T23:58:15;101150.14;;;23.69;49.29
